Amsterdam — PBAD — position and weather

sailwx.info

Track history (hours):
 
Tides and Currents Weather Stations Pressure Air Temp Water Temp Dewpoint Dewpoint Depression Visibility Wind Speed Wind Dir Waves Ship Positions

Amsterdam

Operator: Holland America Line

Last reported at 2017-Jul-20 17:00 UTC. Time now 2017-Jul-20 18:38 UTC.
Position N 57°18' W 133°48'.

Type: Ship. MMSI: 244370000.

Wind at 2 knots

Barometer 1017.2 mb
Air temperature 11.5 ° C
Visibility: greater than 10.8 NM
Dewpoint 10.1 ° C
Water temperature 14.5 ° C

Date/timePositionNaut miles runAvg speedWind from/ knotsBaromVisibWave heightAir tempDewpointWater temp
2017-Jul-20 17:00N 57°18' W 133°48'66 7.3 1017.210.8 11.510.114.5
2017-Jul-20 08:00N 56°12' W 133°48'1211.7 210 / 161016.110.8 11.5 9.211.6
2017-Jul-20 07:00N 56°18' W 133°30'2120.9 300 / 161015.710.8 11.9 8.916.0
2017-Jul-20 06:00N 56°12' W 132°54'1413.7 330 / 41015.610.8 14.510.715.0
2017-Jul-20 05:00N 56°00' W 132°42'3417.2 310 / 91015.610.8 15.412.915.0
2017-Jul-20 03:00N 55°30' W 132°12'94 5.5 130 / 151016.710.8 17.012.512.0
2017-Jul-19 10:00N 54°06' W 131°00'5016.7 300 / 181017.010.8 13.011.115.5
2017-Jul-19 07:00N 53°18' W 130°36'1312.5 350 / 181017.010.8 12.410.615.5
2017-Jul-19 06:00N 53°06' W 130°30'1919.4 340 / 211016.910.8 13.010.916.2
2017-Jul-19 05:00N 52°48' W 130°18'1818.4 330 / 201016.810.8 14.011.815.5
2017-Jul-19 04:00N 52°30' W 130°12'5 7.2 320 / 141016.710.8 15.013.215.8
2017-Jul-19 03:15N 52°26' W 130°07'416.2
2017-Jul-19 02:59N 52°22' W 130°05'816.2
2017-Jul-19 02:30N 52°14' W 130°01'816.3
2017-Jul-19 02:00N 52°07' W 129°56'816.3
2017-Jul-19 01:30N 51°59' W 129°52'816.1
2017-Jul-19 01:00N 51°51' W 129°47'816.2
2017-Jul-19 00:30N 51°44' W 129°43'816.2
2017-Jul-19 00:00N 51°36' W 129°38'6376.2
2017-Jul-19 00:00N 51°30' W 129°36'2 4.3 330 / 191018.810.8 15.011.312.0
2017-Jul-18 23:30N 51°28' W 129°34'816.2
2017-Jul-18 23:00N 51°21' W 129°30'816.2
2017-Jul-18 22:30N 51°13' W 129°25'816.3
2017-Jul-18 22:00N 51°05' W 129°21'816.2
2017-Jul-18 21:30N 50°58' W 129°16'4216.2
2017-Jul-18 18:55N 50°23' W 128°40'716.3
2017-Jul-18 18:30N 50°17' W 128°34'816.3
2017-Jul-18 18:00N 50°11' W 128°26'5394.5
2017-Jul-18 18:00N 50°06' W 128°24'4 7.8 360 / 131017.610.8 13.011.914.7
2017-Jul-18 17:30N 50°04' W 128°19'816.3
2017-Jul-18 17:00N 49°58' W 128°11'816.3
2017-Jul-18 16:30N 49°52' W 128°01'816.5
2017-Jul-18 16:00N 49°47' W 127°51'816.4
2017-Jul-18 15:30N 49°42' W 127°41'816.1
2017-Jul-18 15:00N 49°37' W 127°32'2112.2
2017-Jul-18 15:00N 49°36' W 127°30'1514.9 320 / 61017.310.8 13.111.714.7
2017-Jul-18 14:00N 49°27' W 127°13'816.3
2017-Jul-18 13:30N 49°22' W 127°03'816.2
2017-Jul-18 13:00N 49°16' W 126°53'816.3
2017-Jul-18 12:30N 49°11' W 126°44'816.3
2017-Jul-18 12:00N 49°06' W 126°34'816.3
2017-Jul-18 11:30N 49°01' W 126°24'816.4
2017-Jul-18 11:00N 48°56' W 126°15'816.2
2017-Jul-18 10:30N 48°51' W 126°05'816.3
2017-Jul-18 10:00N 48°46' W 125°55'816.4
2017-Jul-18 09:30N 48°42' W 125°44'816.3
2017-Jul-18 09:00N 48°38' W 125°34'816.3
2017-Jul-18 08:30N 48°33' W 125°23'815.8
2017-Jul-18 08:00N 48°31' W 125°12'816.3
2017-Jul-18 07:30N 48°31' W 124°60'816.2
2017-Jul-18 07:00N 48°31' W 124°47'4227.9
2017-Jul-18 07:00N 48°30' W 124°42'4 9.1 260 / 131017.010.8 12.910.114.0
2017-Jul-18 06:30N 48°29' W 124°36'816.3
2017-Jul-18 06:00N 48°25' W 124°24'4275.7
2017-Jul-18 06:00N 48°24' W 124°18'4 8.0 290 / 191017.010.8 13.2 9.114.0
2017-Jul-18 05:30N 48°22' W 124°13'816.0
2017-Jul-18 05:00N 48°19' W 124°02'815.9
2017-Jul-18 04:30N 48°17' W 123°50'815.8
2017-Jul-18 04:00N 48°15' W 123°39'815.5
2017-Jul-18 03:30N 48°13' W 123°27'612.4
2017-Jul-18 03:00N 48°09' W 123°21'815.7
2017-Jul-18 02:30N 48°12' W 123°10'816.2
2017-Jul-18 02:00N 48°12' W 122°58'816.1
2017-Jul-18 01:30N 48°11' W 122°46'816.3
2017-Jul-18 01:00N 48°04' W 122°38'816.9
2017-Jul-18 00:30N 47°57' W 122°32'816.2
2017-Jul-18 00:00N 47°50' W 122°27'816.8
2017-Jul-17 23:31N 47°41' W 122°27'4 8.7
2017-Jul-17 23:00N 47°38' W 122°23'0 0.0
2017-Jul-17 22:30N 47°38' W 122°23'0 0.0
2017-Jul-17 22:00N 47°38' W 122°23'0 0.0
2017-Jul-17 21:30N 47°38' W 122°23'0 0.0
2017-Jul-17 21:00N 47°38' W 122°23'0 0.0
2017-Jul-17 20:30N 47°38' W 122°23'0 0.0
2017-Jul-17 20:00N 47°38' W 122°23'0 0.0
2017-Jul-17 19:29N 47°38' W 122°23'0 0.0
2017-Jul-17 19:00N 47°38' W 122°23'0 0.0
2017-Jul-17 18:30N 47°38' W 122°23'0 0.0
2017-Jul-17 18:00N 47°38' W 122°23'0 0.0
2017-Jul-17 17:30N 47°38' W 122°23'0 0.0
2017-Jul-17 17:00N 47°38' W 122°23'0 0.0
2017-Jul-17 16:30N 47°38' W 122°23'0 0.0
2017-Jul-17 16:00N 47°38' W 122°23'0 0.0
2017-Jul-17 15:30N 47°38' W 122°23'0 0.0
2017-Jul-17 15:00N 47°38' W 122°23'0 0.0
2017-Jul-17 14:30N 47°38' W 122°23'0 0.0
2017-Jul-17 14:00N 47°38' W 122°23'0 0.9
2017-Jul-17 13:30N 47°37' W 122°23'4 8.0
2017-Jul-17 13:00N 47°39' W 122°28'611.3
2017-Jul-17 12:30N 47°45' W 122°27'611.1
2017-Jul-17 12:00N 47°50' W 122°28'611.2
2017-Jul-17 11:30N 47°56' W 122°31'611.4
2017-Jul-17 11:00N 47°60' W 122°37'611.6
2017-Jul-17 10:30N 48°05' W 122°40'611.3
2017-Jul-17 09:57N 48°10' W 122°46'511.1
2017-Jul-17 09:30N 48°11' W 122°53'611.4
2017-Jul-17 09:00N 48°12' W 123°02'611.4
2017-Jul-17 08:30N 48°12' W 123°10'611.4
2017-Jul-17 08:00N 48°10' W 123°19'510.2
2017-Jul-17 07:30N 48°11' W 123°26'5 9.4
2017-Jul-17 06:58N 48°15' W 123°31'511.6
2017-Jul-17 06:30N 48°20' W 123°27'510.9
2017-Jul-17 06:00N 48°25' W 123°24'1 1.0
2017-Jul-17 05:26N 48°25' W 123°23'0 0.0
2017-Jul-17 04:59N 48°25' W 123°23'0 0.0
2017-Jul-17 04:29N 48°25' W 123°23'0 0.0
2017-Jul-17 03:59N 48°25' W 123°23'0 0.0
2017-Jul-17 03:29N 48°25' W 123°23'0 0.0
2017-Jul-17 02:59N 48°25' W 123°23'0 0.0
2017-Jul-17 02:29N 48°25' W 123°23'0 0.0
2017-Jul-17 01:59N 48°25' W 123°23'0 0.0
2017-Jul-17 01:29N 48°25' W 123°23'0 0.0
2017-Jul-17 00:59N 48°25' W 123°23'0 0.0
2017-Jul-17 00:29N 48°25' W 123°23'0 0.0
2017-Jul-16 23:59N 48°25' W 123°23'0 0.0
2017-Jul-16 23:29N 48°25' W 123°23'0 0.0
2017-Jul-16 22:59N 48°25' W 123°23'0 0.0
2017-Jul-16 22:29N 48°25' W 123°23'0 0.0
2017-Jul-16 21:59N 48°25' W 123°23'0 0.0
2017-Jul-16 21:29N 48°25' W 123°23'0 0.0
2017-Jul-16 20:59N 48°25' W 123°23'0 0.0
2017-Jul-16 20:29N 48°25' W 123°23'0 0.0
2017-Jul-16 19:59N 48°25' W 123°23'0 0.6
2017-Jul-16 19:30N 48°25' W 123°24'4 8.5
2017-Jul-16 19:01N 48°21' W 123°24'816.0
2017-Jul-16 18:30N 48°14' W 123°29'916.7
2017-Jul-16 18:00N 48°14' W 123°42'2495.2
2017-Jul-16 18:00N 48°12' W 123°42'918.0 320 / 121025.510.8 13.512.613.0
2017-Jul-16 17:30N 48°14' W 123°55'816.7
2017-Jul-16 17:00N 48°17' W 124°06'11671.1
2017-Jul-16 17:00N 48°06' W 124°06'1734.1 020 / 41025.810.8 14.212.413.2
2017-Jul-16 16:30N 48°21' W 124°18'917.0
2017-Jul-16 16:00N 48°24' W 124°29'027.9
2017-Jul-16 16:00N 48°24' W 124°30'816.9 250 / 121025.510.8 14.012.713.3
2017-Jul-16 15:30N 48°28' W 124°41'816.6
2017-Jul-16 15:00N 48°28' W 124°54'817.0
2017-Jul-16 14:30N 48°28' W 125°06'917.1
2017-Jul-16 14:00N 48°31' W 125°19'917.7
2017-Jul-16 13:31N 48°36' W 125°30'917.7
2017-Jul-16 13:01N 48°40' W 125°41'6330.4
2017-Jul-16 13:00N 48°36' W 125°36'1429.4 310 / 131024.510.8 13.211.316.5
2017-Jul-16 12:31N 48°45' W 125°53'917.8
2017-Jul-16 12:01N 48°50' W 126°04'917.8
2017-Jul-16 11:30N 48°56' W 126°14'917.8
2017-Jul-16 11:01N 49°01' W 126°25'917.8
2017-Jul-16 10:31N 49°07' W 126°35'917.7
2017-Jul-16 10:01N 49°12' W 126°46'3150.9
2017-Jul-16 10:00N 49°12' W 126°42'1122.9 210 / 81024.310.8 14.011.215.5
2017-Jul-16 09:31N 49°18' W 126°56'917.7
2017-Jul-16 08:59N 49°24' W 127°07'1017.7
2017-Jul-16 08:26N 49°30' W 127°19'2215.5
2017-Jul-16 07:00N 49°42' W 127°48'2019.6 280 / 51023.910.8 12.610.515.5
2017-Jul-16 06:00N 49°54' W 128°12'1716.7 260 / 81023.310.8 12.710.415.4
2017-Jul-16 05:00N 50°06' W 128°30'1919.5 240 / 81022.910.8 14.011.215.1
2017-Jul-16 04:00N 50°18' W 128°54'6917.2 260 / 111022.310.8 14.012.215.5
2017-Jul-16 00:00N 51°06' W 130°12'9118.3 280 / 211020.210.8 14.510.713.0
2017-Jul-15 19:00N 52°12' W 131°54'1616.3 330 / 101017.8 5.4 14.011.514.0
2017-Jul-15 18:00N 52°24' W 132°12'1616.3 330 1017.6 5.4 12.810.714.0
2017-Jul-15 17:00N 52°36' W 132°30'2121.0 270 / 111017.7 5.4 12.510.714.0
2017-Jul-15 16:00N 52°54' W 132°48'1414.0 230 / 111016.0 5.4 12.110.515.1
2017-Jul-15 15:00N 53°06' W 133°00'15018.8 010 / 71017.210.8 12.010.215.6
2017-Jul-15 07:00N 55°24' W 134°42'1212.5 360 / 71020.610.8 12.1 9.715.1
2017-Jul-15 06:00N 55°36' W 134°48'1919.2 350 / 31020.910.8 13.011.114.3
2017-Jul-15 05:00N 55°54' W 135°00'3316.4 320 / 71021.010.8 12.3 9.815.2
2017-Jul-15 03:00N 56°24' W 135°24'42 6.0 290 / 41021.210.8 13.510.612.0
2017-Jul-14 20:00N 57°06' W 135°24'0 0.0 220 / 131022.210.8 15.012.311.0
2017-Jul-14 18:00N 57°06' W 135°24'60 8.6 200 / 91021.910.8 14.212.911.0
2017-Jul-14 11:00N 57°36' W 137°00'5518.2 1021.710.8 13.511.615.0
2017-Jul-14 08:00N 58°18' W 138°06'2221.9 120 / 91021.810.8 12.010.615.0
2017-Jul-14 07:00N 58°36' W 138°30'1717.3 140 / 131021.010.8 12.310.914.3
2017-Jul-14 06:00N 58°48' W 138°54'1717.3 150 / 151021.010.8 12.611.014.5
2017-Jul-14 05:00N 59°00' W 139°18'3517.6 150 / 181020.010.8 12.710.913.9
2017-Jul-14 03:00N 59°30' W 139°54'25 3.6 140 / 231019.510.8 14.012.212.0
2017-Jul-13 20:00N 59°24' W 140°42'1616.4 120 / 151015.610.8 14.211.614.2
2017-Jul-13 19:00N 59°18' W 141°12'1919.4 090 / 51015.510.8 14.211.614.2
2017-Jul-13 18:00N 59°12' W 141°48'1716.5 290 / 61015.710.8 13.512.214.5
2017-Jul-13 17:00N 59°06' W 142°18'5117.0 280 / 71015.710.8 13.512.714.2
2017-Jul-13 14:00N 58°54' W 143°54'5919.6 320 / 131016.510.8 13.011.614.2
2017-Jul-13 11:00N 58°36' W 145°42'5518.2 290 / 131018.110.8 13.510.614.0
2017-Jul-13 08:00N 58°24' W 147°24'1716.8 290 / 131019.910.8 12.4 9.814.0
2017-Jul-13 07:00N 58°18' W 147°54'2019.9 310 / 91020.610.8 12.7 9.113.9
2017-Jul-13 06:00N 58°12' W 148°30'1716.9 300 / 121020.310.8 13.812.314.3
2017-Jul-13 05:00N 58°06' W 149°00'3216.2 300 / 101020.410.8 13.612.513.1
2017-Jul-13 03:00N 58°00' W 150°00'63 3.3 020 / 21020.710.8 13.010.112.0
2017-Jul-12 08:00N 58°42' W 151°30'54 4.5 320 / 121013.410.8 13.0 8.911.2
2017-Jul-11 20:00N 59°36' W 151°24'79 7.9 240 / 41014.010.8 13.0 7.9 9.0
2017-Jul-11 10:00N 60°54' W 151°06'2411.8 230 / 151014.410.8 13.510.614.0
2017-Jul-11 08:00N 61°06' W 150°24'1615.7 240 / 91013.410.8 14.0 8.014.0
2017-Jul-11 07:00N 61°12' W 149°54'   270 / 121013.210.8 16.010.314.7
Track history (hours):
 
Tides and Currents Weather Stations Pressure Air Temp Water Temp Dewpoint Dewpoint Depression Visibility Wind Speed Wind Dir Waves Ship Positions

Amsterdam

Operator: Holland America Line

Last reported at 2017-Jul-20 17:00 UTC. Time now 2017-Jul-20 18:38 UTC.
Position N 57°18' W 133°48'.

Type: Ship. MMSI: 244370000.

Wind at 2 knots

Barometer 1017.2 mb
Air temperature 11.5 ° C
Visibility: greater than 10.8 NM
Dewpoint 10.1 ° C
Water temperature 14.5 ° C

Date/timePositionNaut miles runAvg speedWind from/ knotsBaromVisibWave heightAir tempDewpointWater temp
2017-Jul-20 17:00N 57°18' W 133°48'66 7.3 1017.210.8 11.510.114.5
2017-Jul-20 08:00N 56°12' W 133°48'1211.7 210 / 161016.110.8 11.5 9.211.6
2017-Jul-20 07:00N 56°18' W 133°30'2120.9 300 / 161015.710.8 11.9 8.916.0
2017-Jul-20 06:00N 56°12' W 132°54'1413.7 330 / 41015.610.8 14.510.715.0
2017-Jul-20 05:00N 56°00' W 132°42'3417.2 310 / 91015.610.8 15.412.915.0
2017-Jul-20 03:00N 55°30' W 132°12'94 5.5 130 / 151016.710.8 17.012.512.0
2017-Jul-19 10:00N 54°06' W 131°00'5016.7 300 / 181017.010.8 13.011.115.5
2017-Jul-19 07:00N 53°18' W 130°36'1312.5 350 / 181017.010.8 12.410.615.5
2017-Jul-19 06:00N 53°06' W 130°30'1919.4 340 / 211016.910.8 13.010.916.2
2017-Jul-19 05:00N 52°48' W 130°18'1818.4 330 / 201016.810.8 14.011.815.5
2017-Jul-19 04:00N 52°30' W 130°12'5 7.2 320 / 141016.710.8 15.013.215.8
2017-Jul-19 03:15N 52°26' W 130°07'416.2
2017-Jul-19 02:59N 52°22' W 130°05'816.2
2017-Jul-19 02:30N 52°14' W 130°01'816.3
2017-Jul-19 02:00N 52°07' W 129°56'816.3
2017-Jul-19 01:30N 51°59' W 129°52'816.1
2017-Jul-19 01:00N 51°51' W 129°47'816.2
2017-Jul-19 00:30N 51°44' W 129°43'816.2
2017-Jul-19 00:00N 51°36' W 129°38'6376.2
2017-Jul-19 00:00N 51°30' W 129°36'2 4.3 330 / 191018.810.8 15.011.312.0
2017-Jul-18 23:30N 51°28' W 129°34'816.2
2017-Jul-18 23:00N 51°21' W 129°30'816.2
2017-Jul-18 22:30N 51°13' W 129°25'816.3
2017-Jul-18 22:00N 51°05' W 129°21'816.2
2017-Jul-18 21:30N 50°58' W 129°16'4216.2
2017-Jul-18 18:55N 50°23' W 128°40'716.3
2017-Jul-18 18:30N 50°17' W 128°34'816.3
2017-Jul-18 18:00N 50°11' W 128°26'5394.5
2017-Jul-18 18:00N 50°06' W 128°24'4 7.8 360 / 131017.610.8 13.011.914.7
2017-Jul-18 17:30N 50°04' W 128°19'816.3
2017-Jul-18 17:00N 49°58' W 128°11'816.3
2017-Jul-18 16:30N 49°52' W 128°01'816.5
2017-Jul-18 16:00N 49°47' W 127°51'816.4
2017-Jul-18 15:30N 49°42' W 127°41'816.1
2017-Jul-18 15:00N 49°37' W 127°32'2112.2
2017-Jul-18 15:00N 49°36' W 127°30'1514.9 320 / 61017.310.8 13.111.714.7
2017-Jul-18 14:00N 49°27' W 127°13'816.3
2017-Jul-18 13:30N 49°22' W 127°03'816.2
2017-Jul-18 13:00N 49°16' W 126°53'816.3
2017-Jul-18 12:30N 49°11' W 126°44'816.3
2017-Jul-18 12:00N 49°06' W 126°34'816.3
2017-Jul-18 11:30N 49°01' W 126°24'816.4
2017-Jul-18 11:00N 48°56' W 126°15'816.2
2017-Jul-18 10:30N 48°51' W 126°05'816.3
2017-Jul-18 10:00N 48°46' W 125°55'816.4
2017-Jul-18 09:30N 48°42' W 125°44'816.3
2017-Jul-18 09:00N 48°38' W 125°34'816.3
2017-Jul-18 08:30N 48°33' W 125°23'815.8
2017-Jul-18 08:00N 48°31' W 125°12'816.3
2017-Jul-18 07:30N 48°31' W 124°60'816.2
2017-Jul-18 07:00N 48°31' W 124°47'4227.9
2017-Jul-18 07:00N 48°30' W 124°42'4 9.1 260 / 131017.010.8 12.910.114.0
2017-Jul-18 06:30N 48°29' W 124°36'816.3
2017-Jul-18 06:00N 48°25' W 124°24'4275.7
2017-Jul-18 06:00N 48°24' W 124°18'4 8.0 290 / 191017.010.8 13.2 9.114.0
2017-Jul-18 05:30N 48°22' W 124°13'816.0
2017-Jul-18 05:00N 48°19' W 124°02'815.9
2017-Jul-18 04:30N 48°17' W 123°50'815.8
2017-Jul-18 04:00N 48°15' W 123°39'815.5
2017-Jul-18 03:30N 48°13' W 123°27'612.4
2017-Jul-18 03:00N 48°09' W 123°21'815.7
2017-Jul-18 02:30N 48°12' W 123°10'816.2
2017-Jul-18 02:00N 48°12' W 122°58'816.1
2017-Jul-18 01:30N 48°11' W 122°46'816.3
2017-Jul-18 01:00N 48°04' W 122°38'816.9
2017-Jul-18 00:30N 47°57' W 122°32'816.2
2017-Jul-18 00:00N 47°50' W 122°27'816.8
2017-Jul-17 23:31N 47°41' W 122°27'4 8.7
2017-Jul-17 23:00N 47°38' W 122°23'0 0.0
2017-Jul-17 22:30N 47°38' W 122°23'0 0.0
2017-Jul-17 22:00N 47°38' W 122°23'0 0.0
2017-Jul-17 21:30N 47°38' W 122°23'0 0.0
2017-Jul-17 21:00N 47°38' W 122°23'0 0.0
2017-Jul-17 20:30N 47°38' W 122°23'0 0.0
2017-Jul-17 20:00N 47°38' W 122°23'0 0.0
2017-Jul-17 19:29N 47°38' W 122°23'0 0.0
2017-Jul-17 19:00N 47°38' W 122°23'0 0.0
2017-Jul-17 18:30N 47°38' W 122°23'0 0.0
2017-Jul-17 18:00N 47°38' W 122°23'0 0.0
2017-Jul-17 17:30N 47°38' W 122°23'0 0.0
2017-Jul-17 17:00N 47°38' W 122°23'0 0.0
2017-Jul-17 16:30N 47°38' W 122°23'0 0.0
2017-Jul-17 16:00N 47°38' W 122°23'0 0.0
2017-Jul-17 15:30N 47°38' W 122°23'0 0.0
2017-Jul-17 15:00N 47°38' W 122°23'0 0.0
2017-Jul-17 14:30N 47°38' W 122°23'0 0.0
2017-Jul-17 14:00N 47°38' W 122°23'0 0.9
2017-Jul-17 13:30N 47°37' W 122°23'4 8.0
2017-Jul-17 13:00N 47°39' W 122°28'611.3
2017-Jul-17 12:30N 47°45' W 122°27'611.1
2017-Jul-17 12:00N 47°50' W 122°28'611.2
2017-Jul-17 11:30N 47°56' W 122°31'611.4
2017-Jul-17 11:00N 47°60' W 122°37'611.6
2017-Jul-17 10:30N 48°05' W 122°40'611.3
2017-Jul-17 09:57N 48°10' W 122°46'511.1
2017-Jul-17 09:30N 48°11' W 122°53'611.4
2017-Jul-17 09:00N 48°12' W 123°02'611.4
2017-Jul-17 08:30N 48°12' W 123°10'611.4
2017-Jul-17 08:00N 48°10' W 123°19'510.2
2017-Jul-17 07:30N 48°11' W 123°26'5 9.4
2017-Jul-17 06:58N 48°15' W 123°31'511.6
2017-Jul-17 06:30N 48°20' W 123°27'510.9
2017-Jul-17 06:00N 48°25' W 123°24'1 1.0
2017-Jul-17 05:26N 48°25' W 123°23'0 0.0
2017-Jul-17 04:59N 48°25' W 123°23'0 0.0
2017-Jul-17 04:29N 48°25' W 123°23'0 0.0
2017-Jul-17 03:59N 48°25' W 123°23'0 0.0
2017-Jul-17 03:29N 48°25' W 123°23'0 0.0
2017-Jul-17 02:59N 48°25' W 123°23'0 0.0
2017-Jul-17 02:29N 48°25' W 123°23'0 0.0
2017-Jul-17 01:59N 48°25' W 123°23'0 0.0
2017-Jul-17 01:29N 48°25' W 123°23'0 0.0
2017-Jul-17 00:59N 48°25' W 123°23'0 0.0
2017-Jul-17 00:29N 48°25' W 123°23'0 0.0
2017-Jul-16 23:59N 48°25' W 123°23'0 0.0
2017-Jul-16 23:29N 48°25' W 123°23'0 0.0
2017-Jul-16 22:59N 48°25' W 123°23'0 0.0
2017-Jul-16 22:29N 48°25' W 123°23'0 0.0
2017-Jul-16 21:59N 48°25' W 123°23'0 0.0
2017-Jul-16 21:29N 48°25' W 123°23'0 0.0
2017-Jul-16 20:59N 48°25' W 123°23'0 0.0
2017-Jul-16 20:29N 48°25' W 123°23'0 0.0
2017-Jul-16 19:59N 48°25' W 123°23'0 0.6
2017-Jul-16 19:30N 48°25' W 123°24'4 8.5
2017-Jul-16 19:01N 48°21' W 123°24'816.0
2017-Jul-16 18:30N 48°14' W 123°29'916.7
2017-Jul-16 18:00N 48°14' W 123°42'2495.2
2017-Jul-16 18:00N 48°12' W 123°42'918.0 320 / 121025.510.8 13.512.613.0
2017-Jul-16 17:30N 48°14' W 123°55'816.7
2017-Jul-16 17:00N 48°17' W 124°06'11671.1
2017-Jul-16 17:00N 48°06' W 124°06'1734.1 020 / 41025.810.8 14.212.413.2
2017-Jul-16 16:30N 48°21' W 124°18'917.0
2017-Jul-16 16:00N 48°24' W 124°29'027.9
2017-Jul-16 16:00N 48°24' W 124°30'816.9 250 / 121025.510.8 14.012.713.3
2017-Jul-16 15:30N 48°28' W 124°41'816.6
2017-Jul-16 15:00N 48°28' W 124°54'817.0
2017-Jul-16 14:30N 48°28' W 125°06'917.1
2017-Jul-16 14:00N 48°31' W 125°19'917.7
2017-Jul-16 13:31N 48°36' W 125°30'917.7
2017-Jul-16 13:01N 48°40' W 125°41'6330.4
2017-Jul-16 13:00N 48°36' W 125°36'1429.4 310 / 131024.510.8 13.211.316.5
2017-Jul-16 12:31N 48°45' W 125°53'917.8
2017-Jul-16 12:01N 48°50' W 126°04'917.8
2017-Jul-16 11:30N 48°56' W 126°14'917.8
2017-Jul-16 11:01N 49°01' W 126°25'917.8
2017-Jul-16 10:31N 49°07' W 126°35'917.7
2017-Jul-16 10:01N 49°12' W 126°46'3150.9
2017-Jul-16 10:00N 49°12' W 126°42'1122.9 210 / 81024.310.8 14.011.215.5
2017-Jul-16 09:31N 49°18' W 126°56'917.7
2017-Jul-16 08:59N 49°24' W 127°07'1017.7
2017-Jul-16 08:26N 49°30' W 127°19'2215.5
2017-Jul-16 07:00N 49°42' W 127°48'2019.6 280 / 51023.910.8 12.610.515.5
2017-Jul-16 06:00N 49°54' W 128°12'1716.7 260 / 81023.310.8 12.710.415.4
2017-Jul-16 05:00N 50°06' W 128°30'1919.5 240 / 81022.910.8 14.011.215.1
2017-Jul-16 04:00N 50°18' W 128°54'6917.2 260 / 111022.310.8 14.012.215.5
2017-Jul-16 00:00N 51°06' W 130°12'9118.3 280 / 211020.210.8 14.510.713.0
2017-Jul-15 19:00N 52°12' W 131°54'1616.3 330 / 101017.8 5.4 14.011.514.0
2017-Jul-15 18:00N 52°24' W 132°12'1616.3 330 1017.6 5.4 12.810.714.0
2017-Jul-15 17:00N 52°36' W 132°30'2121.0 270 / 111017.7 5.4 12.510.714.0
2017-Jul-15 16:00N 52°54' W 132°48'1414.0 230 / 111016.0 5.4 12.110.515.1
2017-Jul-15 15:00N 53°06' W 133°00'15018.8 010 / 71017.210.8 12.010.215.6
2017-Jul-15 07:00N 55°24' W 134°42'1212.5 360 / 71020.610.8 12.1 9.715.1
2017-Jul-15 06:00N 55°36' W 134°48'1919.2 350 / 31020.910.8 13.011.114.3
2017-Jul-15 05:00N 55°54' W 135°00'3316.4 320 / 71021.010.8 12.3 9.815.2
2017-Jul-15 03:00N 56°24' W 135°24'42 6.0 290 / 41021.210.8 13.510.612.0
2017-Jul-14 20:00N 57°06' W 135°24'0 0.0 220 / 131022.210.8 15.012.311.0
2017-Jul-14 18:00N 57°06' W 135°24'60 8.6 200 / 91021.910.8 14.212.911.0
2017-Jul-14 11:00N 57°36' W 137°00'5518.2 1021.710.8 13.511.615.0
2017-Jul-14 08:00N 58°18' W 138°06'2221.9 120 / 91021.810.8 12.010.615.0
2017-Jul-14 07:00N 58°36' W 138°30'1717.3 140 / 131021.010.8 12.310.914.3
2017-Jul-14 06:00N 58°48' W 138°54'1717.3 150 / 151021.010.8 12.611.014.5
2017-Jul-14 05:00N 59°00' W 139°18'3517.6 150 / 181020.010.8 12.710.913.9
2017-Jul-14 03:00N 59°30' W 139°54'25 3.6 140 / 231019.510.8 14.012.212.0
2017-Jul-13 20:00N 59°24' W 140°42'1616.4 120 / 151015.610.8 14.211.614.2
2017-Jul-13 19:00N 59°18' W 141°12'1919.4 090 / 51015.510.8 14.211.614.2
2017-Jul-13 18:00N 59°12' W 141°48'1716.5 290 / 61015.710.8 13.512.214.5
2017-Jul-13 17:00N 59°06' W 142°18'5117.0 280 / 71015.710.8 13.512.714.2
2017-Jul-13 14:00N 58°54' W 143°54'5919.6 320 / 131016.510.8 13.011.614.2
2017-Jul-13 11:00N 58°36' W 145°42'5518.2 290 / 131018.110.8 13.510.614.0
2017-Jul-13 08:00N 58°24' W 147°24'1716.8 290 / 131019.910.8 12.4 9.814.0
2017-Jul-13 07:00N 58°18' W 147°54'2019.9 310 / 91020.610.8 12.7 9.113.9
2017-Jul-13 06:00N 58°12' W 148°30'1716.9 300 / 121020.310.8 13.812.314.3
2017-Jul-13 05:00N 58°06' W 149°00'3216.2 300 / 101020.410.8 13.612.513.1
2017-Jul-13 03:00N 58°00' W 150°00'63 3.3 020 / 21020.710.8 13.010.112.0
2017-Jul-12 08:00N 58°42' W 151°30'54 4.5 320 / 121013.410.8 13.0 8.911.2
2017-Jul-11 20:00N 59°36' W 151°24'79 7.9 240 / 41014.010.8 13.0 7.9 9.0
2017-Jul-11 10:00N 60°54' W 151°06'2411.8 230 / 151014.410.8 13.510.614.0
2017-Jul-11 08:00N 61°06' W 150°24'1615.7 240 / 91013.410.8 14.0 8.014.0
2017-Jul-11 07:00N 61°12' W 149°54'   270 / 121013.210.8 16.010.314.7

Dump ship's entire track history